createdAt,value
2023-05-01T00:00:44.700Z,94854.00
2023-05-01T00:01:44.700Z,94856.00
2023-05-01T00:02:44.721Z,94856.00
2023-05-01T00:03:44.859Z,94852.00
2023-05-01T00:04:44.856Z,94852.00
2023-05-01T00:05:44.719Z,94852.00
2023-05-01T00:06:44.915Z,94850.00
2023-05-01T00:07:44.718Z,94848.00
2023-05-01T00:08:44.762Z,94850.00
2023-05-01T00:09:44.771Z,94850.00
2023-05-01T00:10:44.801Z,94852.00
2023-05-01T00:11:44.770Z,94848.00
2023-05-01T00:12:44.798Z,94848.00
2023-05-01T00:13:44.801Z,94852.00
2023-05-01T00:14:44.794Z,94848.00
2023-05-01T00:15:44.787Z,94846.00
2023-05-01T00:16:44.875Z,94846.00
2023-05-01T00:17:44.840Z,94845.00
2023-05-01T00:18:44.825Z,94843.00
2023-05-01T00:19:44.828Z,94845.00
2023-05-01T00:20:44.844Z,94845.00
2023-05-01T00:21:44.840Z,94846.00
2023-05-01T00:22:44.851Z,94846.00
2023-05-01T00:23:44.820Z,94848.00
2023-05-01T00:24:44.832Z,94848.00
2023-05-01T00:25:44.856Z,94846.00
2023-05-01T00:26:44.881Z,94848.00
2023-05-01T00:27:44.876Z,94846.00
2023-05-01T00:28:44.874Z,94843.00
2023-05-01T00:29:44.914Z,94843.00
2023-05-01T00:30:44.895Z,94841.00
2023-05-01T00:31:44.912Z,94835.00
2023-05-01T00:32:44.940Z,94839.00
2023-05-01T00:33:44.936Z,94837.00
2023-05-01T00:34:44.915Z,94837.00
2023-05-01T00:35:44.917Z,94835.00
2023-05-01T00:36:44.941Z,94835.00
2023-05-01T00:37:44.960Z,94833.00
2023-05-01T00:38:44.963Z,94835.00
2023-05-01T00:39:44.946Z,94831.00
2023-05-01T00:40:44.999Z,94833.00
2023-05-01T00:41:44.972Z,94837.00
2023-05-01T00:42:44.965Z,94843.00
2023-05-01T00:43:44.972Z,94839.00
2023-05-01T00:44:45.006Z,94839.00
2023-05-01T00:45:45.080Z,94839.00
2023-05-01T00:46:45.008Z,94835.00
2023-05-01T00:47:45.054Z,94833.00
2023-05-01T00:48:45.024Z,94831.00
2023-05-01T00:49:45.035Z,94831.00
2023-05-01T00:50:45.021Z,94831.00
2023-05-01T00:51:45.057Z,94829.00
2023-05-01T00:52:45.030Z,94829.00
2023-05-01T00:53:45.020Z,94827.00
2023-05-01T00:54:45.077Z,94829.00
2023-05-01T00:55:45.058Z,94829.00
2023-05-01T00:56:45.047Z,94829.00
2023-05-01T00:57:45.033Z,94829.00
2023-05-01T00:58:45.076Z,94829.00
2023-05-01T00:59:45.051Z,94827.00
2023-05-01T01:00:45.066Z,94825.00
2023-05-01T01:01:45.143Z,94827.00
2023-05-01T01:02:45.144Z,94821.00
2023-05-01T01:03:45.100Z,94819.00
2023-05-01T01:04:45.114Z,94817.00
2023-05-01T01:05:45.114Z,94819.00
2023-05-01T01:06:45.327Z,94817.00
2023-05-01T01:07:45.115Z,94819.00
2023-05-01T01:08:45.120Z,94819.00
2023-05-01T01:09:45.137Z,94821.00
2023-05-01T01:10:45.122Z,94821.00
2023-05-01T01:11:45.165Z,94823.00
2023-05-01T01:12:45.184Z,94823.00
2023-05-01T01:13:45.202Z,94821.00
2023-05-01T01:14:45.209Z,94819.00
2023-05-01T01:15:45.178Z,94815.00
2023-05-01T01:16:45.281Z,94817.00
2023-05-01T01:17:45.224Z,94815.00
2023-05-01T01:18:45.212Z,94817.00
2023-05-01T01:19:45.240Z,94819.00
2023-05-01T01:20:45.239Z,94819.00
2023-05-01T01:21:45.226Z,94819.00
2023-05-01T01:22:45.254Z,94819.00
2023-05-01T01:23:45.255Z,94819.00
2023-05-01T01:24:45.273Z,94817.00
2023-05-01T01:25:45.282Z,94817.00
2023-05-01T01:26:45.275Z,94815.00
2023-05-01T01:27:45.262Z,94817.00
2023-05-01T01:28:45.278Z,94815.00
2023-05-01T01:29:45.298Z,94815.00
2023-05-01T01:30:45.394Z,94815.00
2023-05-01T01:31:45.414Z,94817.00
2023-05-01T01:32:45.384Z,94817.00
2023-05-01T01:33:45.360Z,94817.00
2023-05-01T01:34:45.336Z,94817.00
2023-05-01T01:35:45.344Z,94817.00
2023-05-01T01:36:45.371Z,94813.00
2023-05-01T01:37:45.416Z,94815.00
2023-05-01T01:38:45.416Z,94813.00
2023-05-01T01:39:45.394Z,94813.00
2023-05-01T01:40:45.421Z,94813.00
2023-05-01T01:41:45.422Z,94813.00
2023-05-01T01:42:45.414Z,94811.00
2023-05-01T01:43:45.407Z,94811.00
2023-05-01T01:44:45.445Z,94811.00
2023-05-01T01:45:45.457Z,94809.00
2023-05-01T01:46:45.593Z,94809.00
2023-05-01T01:47:45.514Z,94807.00
2023-05-01T01:48:45.560Z,94801.00
2023-05-01T01:49:45.489Z,94807.00
2023-05-01T01:50:45.501Z,94799.00
2023-05-01T01:51:45.495Z,94805.00
2023-05-01T01:52:45.538Z,94799.00
2023-05-01T01:53:45.520Z,94798.00
2023-05-01T01:54:45.506Z,94798.00
2023-05-01T01:55:45.515Z,94798.00
2023-05-01T01:56:45.557Z,94799.00
2023-05-01T01:57:45.595Z,94799.00
2023-05-01T01:58:45.576Z,94801.00
2023-05-01T01:59:45.558Z,94799.00
2023-05-01T02:00:45.570Z,94799.00
2023-05-01T02:01:45.651Z,94799.00
2023-05-01T02:02:45.653Z,94798.00
2023-05-01T02:03:45.985Z,94799.00
2023-05-01T02:04:45.612Z,94799.00
2023-05-01T02:05:45.676Z,94798.00
2023-05-01T02:06:45.818Z,94796.00
2023-05-01T02:07:45.669Z,94796.00
2023-05-01T02:08:45.694Z,94796.00
2023-05-01T02:09:45.705Z,94794.00
2023-05-01T02:10:45.700Z,94794.00
2023-05-01T02:11:45.722Z,94794.00
2023-05-01T02:12:45.714Z,94794.00
2023-05-01T02:13:45.729Z,94792.00
2023-05-01T02:14:45.755Z,94792.00
2023-05-01T02:15:45.812Z,94792.00
2023-05-01T02:16:45.802Z,94788.00
2023-05-01T02:17:45.845Z,94792.00
2023-05-01T02:18:45.810Z,94792.00
2023-05-01T02:19:45.841Z,94792.00
2023-05-01T02:20:45.880Z,94792.00
2023-05-01T02:21:45.897Z,94786.00
2023-05-01T02:22:45.905Z,94786.00
2023-05-01T02:23:45.949Z,94784.00
2023-05-01T02:24:45.973Z,94786.00
2023-05-01T02:25:45.967Z,94784.00
2023-05-01T02:26:45.986Z,94784.00
2023-05-01T02:27:46.031Z,94784.00
2023-05-01T02:28:46.024Z,94782.00
2023-05-01T02:29:46.071Z,94778.00
2023-05-01T02:30:46.071Z,94778.00
2023-05-01T02:31:46.085Z,94780.00
2023-05-01T02:32:46.154Z,94780.00
2023-05-01T02:33:46.120Z,94782.00
2023-05-01T02:34:46.109Z,94780.00
2023-05-01T02:35:46.160Z,94778.00
2023-05-01T02:36:46.172Z,94776.00
2023-05-01T02:37:46.217Z,94776.00
2023-05-01T02:38:46.205Z,94774.00
2023-05-01T02:39:46.234Z,94776.00
2023-05-01T02:40:46.235Z,94774.00
2023-05-01T02:41:46.266Z,94774.00
2023-05-01T02:42:46.290Z,94772.00
2023-05-01T02:43:46.306Z,94774.00
2023-05-01T02:44:46.871Z,94774.00
2023-05-01T02:45:46.375Z,94774.00
2023-05-01T02:46:46.433Z,94774.00
2023-05-01T02:47:46.384Z,94772.00
2023-05-01T02:48:46.426Z,94770.00
2023-05-01T02:49:46.441Z,94768.00
2023-05-01T02:50:46.445Z,94768.00
2023-05-01T02:51:46.463Z,94768.00
2023-05-01T02:52:46.492Z,94766.00
2023-05-01T02:53:46.505Z,94766.00
2023-05-01T02:54:46.530Z,94766.00
2023-05-01T02:55:46.553Z,94766.00
2023-05-01T02:56:46.572Z,94766.00
2023-05-01T02:57:46.571Z,94764.00
2023-05-01T02:58:46.590Z,94766.00
2023-05-01T02:59:46.655Z,94764.00
2023-05-01T03:00:46.734Z,94766.00
2023-05-01T03:01:46.714Z,94766.00
2023-05-01T03:02:46.734Z,94764.00
2023-05-01T03:03:46.697Z,94762.00
2023-05-01T03:04:46.886Z,94764.00
2023-05-01T03:05:46.720Z,94764.00
2023-05-01T03:06:46.859Z,94760.00
2023-05-01T03:07:46.740Z,94758.00
2023-05-01T03:08:46.760Z,94764.00
2023-05-01T03:09:46.772Z,94756.00
2023-05-01T03:10:46.804Z,94758.00
2023-05-01T03:11:46.838Z,94758.00
2023-05-01T03:12:46.871Z,94758.00
2023-05-01T03:13:46.897Z,94758.00
2023-05-01T03:14:46.910Z,94760.00
2023-05-01T03:15:46.922Z,94758.00
2023-05-01T03:16:47.107Z,94758.00
2023-05-01T03:17:47.011Z,94754.00
2023-05-01T03:18:46.979Z,94754.00
2023-05-01T03:19:47.000Z,94752.00
2023-05-01T03:20:47.032Z,94752.00
2023-05-01T03:21:47.057Z,94750.00
2023-05-01T03:22:47.070Z,94752.00
2023-05-01T03:23:47.062Z,94748.00
2023-05-01T03:24:47.095Z,94750.00
2023-05-01T03:25:47.131Z,94748.00
2023-05-01T03:26:47.156Z,94750.00
2023-05-01T03:27:47.158Z,94750.00
2023-05-01T03:28:47.196Z,94752.00
2023-05-01T03:29:47.260Z,94754.00
2023-05-01T03:30:47.245Z,94750.00
2023-05-01T03:31:47.290Z,94748.00
2023-05-01T03:32:47.388Z,94746.00
2023-05-01T03:33:47.344Z,94744.00
2023-05-01T03:34:47.325Z,94743.00
2023-05-01T03:35:47.440Z,94741.00
2023-05-01T03:36:47.424Z,94743.00
2023-05-01T03:37:47.418Z,94746.00
2023-05-01T03:38:47.441Z,94743.00
2023-05-01T03:39:47.482Z,94743.00
2023-05-01T03:40:47.483Z,94741.00
2023-05-01T03:41:47.501Z,94739.00
2023-05-01T03:42:47.519Z,94737.00
2023-05-01T03:43:47.559Z,94735.00
2023-05-01T03:44:47.595Z,94737.00
2023-05-01T03:45:47.641Z,94739.00
2023-05-01T03:46:47.707Z,94739.00
2023-05-01T03:47:47.691Z,94739.00
2023-05-01T03:48:47.656Z,94735.00
2023-05-01T03:49:47.712Z,94735.00
2023-05-01T03:50:47.724Z,94731.00
2023-05-01T03:51:47.748Z,94731.00
2023-05-01T03:52:47.754Z,94729.00
2023-05-01T03:53:47.765Z,94731.00
2023-05-01T03:54:47.781Z,94729.00
2023-05-01T03:55:47.801Z,94729.00
2023-05-01T03:56:47.868Z,94725.00
2023-05-01T03:57:47.921Z,94725.00
2023-05-01T03:58:47.900Z,94725.00
2023-05-01T03:59:47.905Z,94725.00
2023-05-01T04:00:47.960Z,94727.00
2023-05-01T04:01:48.041Z,94727.00
2023-05-01T04:02:48.128Z,94725.00
2023-05-01T04:03:48.093Z,94727.00
2023-05-01T04:04:48.060Z,94729.00
2023-05-01T04:05:48.097Z,94729.00
2023-05-01T04:06:48.194Z,94731.00
2023-05-01T04:07:48.155Z,94727.00
2023-05-01T04:08:48.138Z,94725.00
2023-05-01T04:09:48.207Z,94725.00
2023-05-01T04:10:48.204Z,94727.00
2023-05-01T04:11:48.196Z,94723.00
2023-05-01T04:12:48.241Z,94723.00
2023-05-01T04:13:48.257Z,94721.00
2023-05-01T04:14:48.300Z,94721.00
2023-05-01T04:15:48.980Z,94721.00
2023-05-01T04:16:48.337Z,94721.00
2023-05-01T04:17:48.438Z,94723.00
2023-05-01T04:18:48.362Z,94721.00
2023-05-01T04:19:48.392Z,94721.00
2023-05-01T04:20:48.430Z,94723.00
2023-05-01T04:21:48.439Z,94723.00
2023-05-01T04:22:48.437Z,94723.00
2023-05-01T04:23:48.459Z,94723.00
2023-05-01T04:24:48.502Z,94721.00
2023-05-01T04:25:48.515Z,94721.00
2023-05-01T04:26:48.536Z,94721.00
2023-05-01T04:27:48.550Z,94719.00
2023-05-01T04:28:48.594Z,94721.00
2023-05-01T04:29:48.605Z,94721.00
2023-05-01T04:30:48.612Z,94723.00
2023-05-01T04:31:48.712Z,94721.00
2023-05-01T04:32:48.720Z,94719.00
2023-05-01T04:33:48.707Z,94721.00
2023-05-01T04:34:48.724Z,94721.00
2023-05-01T04:35:48.763Z,94721.00
2023-05-01T04:36:48.774Z,94723.00
2023-05-01T04:37:48.786Z,94721.00
2023-05-01T04:38:48.812Z,94721.00
2023-05-01T04:39:48.815Z,94717.00
2023-05-01T04:40:48.848Z,94715.00
2023-05-01T04:41:48.886Z,94717.00
2023-05-01T04:42:48.888Z,94717.00
2023-05-01T04:43:48.915Z,94719.00
2023-05-01T04:44:48.929Z,94719.00
2023-05-01T04:45:48.927Z,94717.00
2023-05-01T04:46:49.036Z,94719.00
2023-05-01T04:47:49.069Z,94721.00
2023-05-01T04:48:49.034Z,94723.00
2023-05-01T04:49:49.053Z,94719.00
2023-05-01T04:50:49.075Z,94721.00
2023-05-01T04:51:49.158Z,94719.00
2023-05-01T04:52:49.092Z,94719.00
2023-05-01T04:53:49.150Z,94721.00
2023-05-01T04:54:49.207Z,94725.00
2023-05-01T04:55:49.206Z,94723.00
2023-05-01T04:56:49.254Z,94729.00
2023-05-01T04:57:49.258Z,94725.00
2023-05-01T04:58:49.308Z,94725.00
2023-05-01T04:59:49.313Z,94725.00
2023-05-01T05:00:49.324Z,94723.00
2023-05-01T05:01:49.400Z,94729.00
2023-05-01T05:02:49.449Z,94733.00
2023-05-01T05:03:50.301Z,94731.00
2023-05-01T05:04:49.409Z,94731.00
2023-05-01T05:05:49.426Z,94731.00
2023-05-01T05:06:49.473Z,94727.00
2023-05-01T05:07:49.442Z,94727.00
2023-05-01T05:08:49.463Z,94729.00
2023-05-01T05:09:49.494Z,94727.00
2023-05-01T05:10:49.506Z,94733.00
2023-05-01T05:11:49.507Z,94733.00
2023-05-01T05:12:49.564Z,94731.00
2023-05-01T05:13:49.551Z,94735.00
2023-05-01T05:14:49.687Z,94735.00
2023-05-01T05:15:49.673Z,94735.00
2023-05-01T05:16:49.937Z,94733.00
2023-05-01T05:17:49.711Z,94733.00
2023-05-01T05:18:49.710Z,94735.00
2023-05-01T05:19:49.705Z,94731.00
2023-05-01T05:20:49.765Z,94731.00
2023-05-01T05:21:49.713Z,94727.00
2023-05-01T05:22:49.708Z,94727.00
2023-05-01T05:23:49.757Z,94727.00
2023-05-01T05:24:49.759Z,94725.00
2023-05-01T05:25:49.784Z,94723.00
2023-05-01T05:26:49.872Z,94725.00
2023-05-01T05:27:50.454Z,94723.00
2023-05-01T05:28:49.831Z,94727.00
2023-05-01T05:29:49.846Z,94723.00
2023-05-01T05:30:49.869Z,94729.00
2023-05-01T05:31:49.908Z,94725.00
2023-05-01T05:32:49.963Z,94725.00
2023-05-01T05:33:49.928Z,94727.00
2023-05-01T05:34:49.930Z,94727.00
2023-05-01T05:35:49.916Z,94727.00
2023-05-01T05:36:49.943Z,94727.00
2023-05-01T05:37:49.971Z,94729.00
2023-05-01T05:38:49.979Z,94731.00
2023-05-01T05:39:49.982Z,94729.00
2023-05-01T05:40:49.997Z,94733.00
2023-05-01T05:41:50.029Z,94735.00
2023-05-01T05:42:50.044Z,94735.00
2023-05-01T05:43:50.059Z,94735.00
2023-05-01T05:44:50.048Z,94735.00
2023-05-01T05:45:50.071Z,94733.00
2023-05-01T05:46:50.098Z,94733.00
2023-05-01T05:47:50.099Z,94735.00
2023-05-01T05:48:50.101Z,94735.00
2023-05-01T05:49:50.103Z,94735.00
2023-05-01T05:50:50.101Z,94733.00
2023-05-01T05:51:50.129Z,94731.00
2023-05-01T05:52:50.163Z,94729.00
2023-05-01T05:53:50.166Z,94731.00
2023-05-01T05:54:50.153Z,94731.00
2023-05-01T05:55:50.214Z,94733.00
2023-05-01T05:56:50.214Z,94731.00
2023-05-01T05:57:50.240Z,94733.00
2023-05-01T05:58:50.253Z,94729.00
2023-05-01T05:59:50.273Z,94731.00
2023-05-01T06:00:50.256Z,94729.00
2023-05-01T06:01:50.299Z,94733.00
2023-05-01T06:02:50.357Z,94733.00
2023-05-01T06:03:50.363Z,94733.00
2023-05-01T06:04:50.346Z,94735.00
2023-05-01T06:05:50.381Z,94737.00
2023-05-01T06:06:50.398Z,94731.00
2023-05-01T06:07:50.388Z,94731.00
2023-05-01T06:08:50.420Z,94731.00
2023-05-01T06:09:50.454Z,94727.00
2023-05-01T06:10:50.444Z,94723.00
2023-05-01T06:11:50.489Z,94725.00
2023-05-01T06:12:53.756Z,94727.00
2023-05-01T06:13:51.460Z,94727.00
2023-05-01T06:14:50.455Z,94727.00
2023-05-01T06:15:50.468Z,94725.00
2023-05-01T06:16:50.434Z,94723.00
2023-05-01T06:17:50.467Z,94723.00
2023-05-01T06:18:50.402Z,94723.00
2023-05-01T06:19:50.513Z,94725.00
2023-05-01T06:20:50.413Z,94725.00
2023-05-01T06:21:50.405Z,94723.00
2023-05-01T06:22:50.398Z,94723.00
2023-05-01T06:23:50.403Z,94719.00
2023-05-01T06:24:50.398Z,94721.00
2023-05-01T06:25:50.367Z,94721.00
2023-05-01T06:26:50.383Z,94723.00
2023-05-01T06:27:50.388Z,94725.00
2023-05-01T06:28:50.993Z,94721.00
2023-05-01T06:29:50.336Z,94723.00
2023-05-01T06:30:50.338Z,94725.00
2023-05-01T06:31:50.408Z,94721.00
2023-05-01T06:32:50.421Z,94721.00
2023-05-01T06:33:50.329Z,94719.00
2023-05-01T06:34:50.280Z,94717.00
2023-05-01T06:35:50.339Z,94717.00
2023-05-01T06:36:50.332Z,94717.00
2023-05-01T06:37:50.300Z,94715.00
2023-05-01T06:38:50.300Z,94713.00
2023-05-01T06:39:50.273Z,94713.00
2023-05-01T06:40:50.303Z,94713.00
2023-05-01T06:41:50.316Z,94713.00
2023-05-01T06:42:50.318Z,94713.00
2023-05-01T06:43:50.357Z,94713.00
2023-05-01T06:44:50.368Z,94713.00
2023-05-01T06:45:50.336Z,94711.00
2023-05-01T06:46:50.613Z,94715.00
2023-05-01T06:47:50.440Z,94717.00
2023-05-01T06:48:50.417Z,94717.00
2023-05-01T06:49:50.443Z,94719.00
2023-05-01T06:50:50.488Z,94717.00
2023-05-01T06:51:50.474Z,94721.00
2023-05-01T06:52:50.460Z,94717.00
2023-05-01T06:53:50.517Z,94717.00
2023-05-01T06:54:50.494Z,94719.00
2023-05-01T06:55:50.485Z,94719.00
2023-05-01T06:56:50.567Z,94721.00
2023-05-01T06:57:50.513Z,94723.00
2023-05-01T06:58:50.518Z,94723.00
2023-05-01T06:59:50.571Z,94721.00
2023-05-01T07:00:50.776Z,94721.00
2023-05-01T07:01:50.623Z,94721.00
2023-05-01T07:02:50.775Z,94721.00
2023-05-01T07:03:50.609Z,94717.00
2023-05-01T07:04:50.595Z,94715.00
2023-05-01T07:05:50.630Z,94717.00
2023-05-01T07:06:50.750Z,94717.00
2023-05-01T07:07:58.219Z,94717.00
2023-05-01T07:08:51.747Z,94717.00
2023-05-01T07:09:50.606Z,94721.00
2023-05-01T07:10:50.653Z,94717.00
2023-05-01T07:11:50.641Z,94715.00
2023-05-01T07:12:50.620Z,94717.00
2023-05-01T07:13:50.642Z,94719.00
2023-05-01T07:14:50.589Z,94719.00
2023-05-01T07:15:52.262Z,94721.00
2023-05-01T07:16:50.669Z,94721.00
2023-05-01T07:17:50.598Z,94721.00
2023-05-01T07:18:50.565Z,94719.00
2023-05-01T07:19:50.615Z,94721.00
2023-05-01T07:20:50.581Z,94717.00
2023-05-01T07:21:50.533Z,94717.00
2023-05-01T07:22:50.560Z,94719.00
2023-05-01T07:23:50.528Z,94719.00
2023-05-01T07:24:50.531Z,94719.00
2023-05-01T07:25:50.523Z,94719.00
2023-05-01T07:26:50.548Z,94719.00
2023-05-01T07:27:50.544Z,94719.00
2023-05-01T07:28:50.527Z,94719.00
2023-05-01T07:29:50.542Z,94721.00
2023-05-01T07:30:50.513Z,94719.00
2023-05-01T07:31:50.602Z,94717.00
2023-05-01T07:32:50.568Z,94715.00
2023-05-01T07:33:51.207Z,94715.00
2023-05-01T07:34:50.490Z,94713.00
2023-05-01T07:35:50.546Z,94711.00
2023-05-01T07:36:50.478Z,94711.00
2023-05-01T07:37:50.457Z,94711.00
2023-05-01T07:38:50.451Z,94711.00
2023-05-01T07:39:50.484Z,94713.00
2023-05-01T07:40:50.470Z,94713.00
2023-05-01T07:41:50.522Z,94711.00
2023-05-01T07:42:51.893Z,94711.00
2023-05-01T07:43:50.498Z,94709.00
2023-05-01T07:44:50.460Z,94709.00
2023-05-01T07:45:50.430Z,94707.00
2023-05-01T07:46:50.406Z,94707.00
2023-05-01T07:47:50.637Z,94705.00
2023-05-01T07:48:50.492Z,94707.00
2023-05-01T07:49:50.354Z,94707.00
2023-05-01T07:50:50.375Z,94707.00
2023-05-01T07:51:50.394Z,94707.00
2023-05-01T07:52:50.386Z,94709.00
2023-05-01T07:53:50.348Z,94707.00
2023-05-01T07:54:50.345Z,94709.00
2023-05-01T07:55:50.340Z,94709.00
2023-05-01T07:56:50.317Z,94709.00
2023-05-01T07:57:50.324Z,94709.00
2023-05-01T07:58:50.302Z,94707.00
2023-05-01T07:59:50.311Z,94707.00
2023-05-01T08:00:50.308Z,94707.00
2023-05-01T08:01:50.287Z,94713.00
2023-05-01T08:02:50.387Z,94711.00
2023-05-01T08:03:51.086Z,94711.00
2023-05-01T08:04:50.398Z,94709.00
2023-05-01T08:05:50.287Z,94707.00
2023-05-01T08:06:50.434Z,94705.00
2023-05-01T08:07:50.251Z,94707.00
2023-05-01T08:08:50.247Z,94707.00
2023-05-01T08:09:50.249Z,94705.00
2023-05-01T08:10:50.241Z,94703.00
2023-05-01T08:11:50.245Z,94705.00
2023-05-01T08:12:50.237Z,94703.00
2023-05-01T08:13:50.259Z,94705.00
2023-05-01T08:14:50.236Z,94701.00
2023-05-01T08:15:50.259Z,94705.00
2023-05-01T08:16:50.268Z,94705.00
2023-05-01T08:17:50.271Z,94705.00
2023-05-01T08:18:50.207Z,94705.00
2023-05-01T08:19:50.203Z,94703.00
2023-05-01T08:20:50.204Z,94705.00
2023-05-01T08:21:50.178Z,94707.00
2023-05-01T08:22:50.215Z,94705.00
2023-05-01T08:23:50.194Z,94705.00
2023-05-01T08:24:50.159Z,94701.00
2023-05-01T08:25:50.172Z,94701.00
2023-05-01T08:26:50.149Z,94701.00
2023-05-01T08:27:50.144Z,94701.00
2023-05-01T08:28:50.151Z,94701.00
2023-05-01T08:29:50.144Z,94703.00
2023-05-01T08:30:50.146Z,94703.00
2023-05-01T08:31:50.201Z,94703.00
2023-05-01T08:32:50.160Z,94703.00
2023-05-01T08:33:50.172Z,94705.00
2023-05-01T08:34:50.099Z,94700.00
2023-05-01T08:35:50.096Z,94703.00
2023-05-01T08:36:50.137Z,94700.00
2023-05-01T08:37:50.096Z,94700.00
2023-05-01T08:38:50.060Z,94700.00
2023-05-01T08:39:50.086Z,94698.00
2023-05-01T08:40:50.108Z,94696.00
2023-05-01T08:41:50.091Z,94692.00
2023-05-01T08:42:50.049Z,94696.00
2023-05-01T08:43:50.080Z,94696.00
2023-05-01T08:44:50.096Z,94694.00
2023-05-01T08:45:50.048Z,94692.00
2023-05-01T08:46:50.099Z,94690.00
2023-05-01T08:47:50.078Z,94688.00
2023-05-01T08:48:50.012Z,94686.00
2023-05-01T08:49:50.012Z,94686.00
2023-05-01T08:50:50.024Z,94690.00
2023-05-01T08:51:50.059Z,94686.00
2023-05-01T08:52:49.969Z,94684.00
2023-05-01T08:53:49.974Z,94684.00
2023-05-01T08:54:49.954Z,94682.00
2023-05-01T08:55:49.961Z,94682.00
2023-05-01T08:56:49.958Z,94682.00
2023-05-01T08:57:49.970Z,94680.00
2023-05-01T08:58:49.935Z,94684.00
2023-05-01T08:59:49.944Z,94682.00
2023-05-01T09:00:49.931Z,94682.00
2023-05-01T09:01:49.981Z,94682.00
2023-05-01T09:02:50.162Z,94680.00
2023-05-01T09:03:49.954Z,94682.00
2023-05-01T09:04:49.886Z,94684.00
2023-05-01T09:05:49.917Z,94682.00
2023-05-01T09:06:49.920Z,94680.00
2023-05-01T09:07:50.040Z,94676.00
2023-05-01T09:08:49.858Z,94672.00
2023-05-01T09:09:49.872Z,94676.00
2023-05-01T09:10:49.870Z,94676.00
2023-05-01T09:11:49.859Z,94676.00
2023-05-01T09:12:49.845Z,94674.00
2023-05-01T09:13:49.823Z,94676.00
2023-05-01T09:14:49.811Z,94674.00
2023-05-01T09:15:49.826Z,94674.00
2023-05-01T09:16:49.932Z,94676.00
2023-05-01T09:17:49.899Z,94672.00
2023-05-01T09:18:49.815Z,94674.00
2023-05-01T09:19:49.792Z,94672.00
2023-05-01T09:20:49.808Z,94670.00
2023-05-01T09:21:49.805Z,94670.00
2023-05-01T09:22:49.782Z,94670.00
2023-05-01T09:23:49.779Z,94668.00
2023-05-01T09:24:49.872Z,94668.00
2023-05-01T09:25:51.959Z,94666.00
2023-05-01T09:26:49.779Z,94666.00
2023-05-01T09:27:49.755Z,94666.00
2023-05-01T09:28:49.767Z,94668.00
2023-05-01T09:29:49.762Z,94666.00
2023-05-01T09:30:49.712Z,94666.00
2023-05-01T09:31:49.784Z,94662.00
2023-05-01T09:32:49.747Z,94660.00
2023-05-01T09:33:49.764Z,94652.00
2023-05-01T09:34:49.759Z,94652.00
2023-05-01T09:35:49.772Z,94650.00
2023-05-01T09:36:49.756Z,94650.00
2023-05-01T09:37:49.859Z,94652.00
2023-05-01T09:38:49.802Z,94652.00
2023-05-01T09:39:49.841Z,94652.00
2023-05-01T09:40:49.838Z,94647.00
2023-05-01T09:41:49.893Z,94645.00
2023-05-01T09:42:49.959Z,94649.00
2023-05-01T09:43:49.967Z,94645.00
2023-05-01T09:44:50.010Z,94645.00
2023-05-01T09:45:50.146Z,94647.00
2023-05-01T09:46:50.111Z,94649.00
2023-05-01T09:47:50.179Z,94647.00
2023-05-01T09:48:50.167Z,94645.00
2023-05-01T09:49:50.218Z,94643.00
2023-05-01T09:50:50.223Z,94643.00
2023-05-01T09:51:50.224Z,94633.00
2023-05-01T09:52:50.273Z,94633.00
2023-05-01T09:53:50.356Z,94633.00
2023-05-01T09:54:50.386Z,94633.00
2023-05-01T09:55:50.422Z,94631.00
2023-05-01T09:56:50.455Z,94633.00
2023-05-01T09:57:50.526Z,94631.00
2023-05-01T09:58:50.519Z,94629.00
2023-05-01T09:59:50.530Z,94627.00
2023-05-01T10:00:50.652Z,94627.00
2023-05-01T10:01:50.913Z,94627.00
2023-05-01T10:02:51.073Z,94627.00
2023-05-01T10:03:50.865Z,94623.00
2023-05-01T10:04:50.772Z,94621.00
2023-05-01T10:05:50.844Z,94619.00
2023-05-01T10:06:51.139Z,94619.00
2023-05-01T10:07:51.082Z,94617.00
2023-05-01T10:08:50.991Z,94617.00
2023-05-01T10:09:51.043Z,94617.00
2023-05-01T10:10:51.100Z,94615.00
2023-05-01T10:11:51.166Z,94617.00
2023-05-01T10:12:51.215Z,94611.00
2023-05-01T10:13:51.369Z,94611.00
2023-05-01T10:14:51.324Z,94613.00
2023-05-01T10:15:51.376Z,94613.00
2023-05-01T10:16:51.476Z,94611.00
2023-05-01T10:17:51.492Z,94613.00
2023-05-01T10:18:51.564Z,94611.00
2023-05-01T10:19:51.684Z,94609.00
2023-05-01T10:20:51.712Z,94607.00
2023-05-01T10:21:51.763Z,94609.00
2023-05-01T10:22:51.821Z,94607.00
2023-05-01T10:23:51.862Z,94609.00
2023-05-01T10:24:51.913Z,94609.00
2023-05-01T10:25:51.986Z,94607.00
2023-05-01T10:26:52.063Z,94607.00
2023-05-01T10:27:52.119Z,94611.00
2023-05-01T10:28:52.175Z,94609.00
2023-05-01T10:29:52.230Z,94609.00
2023-05-01T10:30:52.362Z,94611.00
2023-05-01T10:31:52.490Z,94611.00
2023-05-01T10:32:52.462Z,94609.00
2023-05-01T10:33:52.478Z,94605.00
2023-05-01T10:34:52.560Z,94607.00
2023-05-01T10:35:52.632Z,94605.00
2023-05-01T10:36:52.674Z,94602.00
2023-05-01T10:37:52.705Z,94602.00
2023-05-01T10:38:52.798Z,94600.00
2023-05-01T10:39:52.852Z,94598.00
2023-05-01T10:40:52.904Z,94596.00
2023-05-01T10:41:52.973Z,94596.00
2023-05-01T10:42:53.026Z,94590.00
2023-05-01T10:43:53.046Z,94592.00
2023-05-01T10:44:53.138Z,94594.00
2023-05-01T10:45:53.279Z,94590.00
2023-05-01T10:46:53.300Z,94590.00
2023-05-01T10:47:53.373Z,94584.00
2023-05-01T10:48:53.400Z,94588.00
2023-05-01T10:49:53.449Z,94586.00
2023-05-01T10:50:53.496Z,94586.00
2023-05-01T10:51:53.593Z,94584.00
2023-05-01T10:52:53.668Z,94580.00
2023-05-01T10:53:53.679Z,94584.00
2023-05-01T10:54:53.888Z,94582.00
2023-05-01T10:55:53.781Z,94576.00
2023-05-01T10:56:53.856Z,94574.00
2023-05-01T10:57:53.906Z,94570.00
2023-05-01T10:58:54.005Z,94572.00
2023-05-01T10:59:54.060Z,94568.00
2023-05-01T11:00:54.081Z,94568.00
2023-05-01T11:01:54.313Z,94566.00
2023-05-01T11:02:54.229Z,94564.00
2023-05-01T11:03:54.289Z,94562.00
2023-05-01T11:04:54.561Z,94562.00
2023-05-01T11:05:54.419Z,94560.00
2023-05-01T11:06:54.495Z,94557.00
2023-05-01T11:07:54.472Z,94557.00
2023-05-01T11:08:54.551Z,94555.00
2023-05-01T11:09:54.568Z,94557.00
2023-05-01T11:10:54.623Z,94557.00
2023-05-01T11:11:54.691Z,94555.00
2023-05-01T11:12:54.721Z,94557.00
2023-05-01T11:13:54.769Z,94555.00
2023-05-01T11:14:54.944Z,94555.00
2023-05-01T11:15:54.868Z,94553.00
2023-05-01T11:16:54.930Z,94553.00
2023-05-01T11:17:54.992Z,94551.00
2023-05-01T11:18:55.001Z,94553.00
2023-05-01T11:19:55.047Z,94549.00
2023-05-01T11:20:55.089Z,94547.00
2023-05-01T11:21:55.157Z,94547.00
2023-05-01T11:22:55.195Z,94549.00
2023-05-01T11:23:55.207Z,94551.00
2023-05-01T11:24:55.602Z,94549.00
2023-05-01T11:25:55.322Z,94545.00
2023-05-01T11:26:55.368Z,94547.00
2023-05-01T11:27:55.402Z,94547.00
2023-05-01T11:28:55.413Z,94545.00
2023-05-01T11:29:55.491Z,94539.00
2023-05-01T11:30:55.524Z,94541.00
2023-05-01T11:31:55.567Z,94545.00
2023-05-01T11:32:55.658Z,94543.00
2023-05-01T11:33:55.646Z,94543.00
2023-05-01T11:34:55.935Z,94541.00
2023-05-01T11:35:55.732Z,94541.00
2023-05-01T11:36:55.738Z,94535.00
2023-05-01T11:37:55.852Z,94535.00
2023-05-01T11:38:55.846Z,94535.00
2023-05-01T11:39:55.881Z,94533.00
2023-05-01T11:40:56.022Z,94531.00
2023-05-01T11:41:56.010Z,94531.00
2023-05-01T11:42:56.038Z,94533.00
2023-05-01T11:43:56.055Z,94533.00
2023-05-01T11:44:56.267Z,94533.00